createdAt,value
2023-06-18T00:00:06.586Z,3558.00
2023-06-18T00:01:06.650Z,3558.00
2023-06-18T00:02:06.603Z,3560.00
2023-06-18T00:03:06.670Z,3561.00
2023-06-18T00:04:06.701Z,3554.00
2023-06-18T00:05:06.701Z,3553.00
2023-06-18T00:06:06.717Z,3556.00
2023-06-18T00:07:06.741Z,3551.00
2023-06-18T00:08:06.788Z,3561.00
2023-06-18T00:09:06.792Z,3558.00
2023-06-18T00:10:06.824Z,3554.00
2023-06-18T00:11:06.851Z,3560.00
2023-06-18T00:12:06.871Z,3565.00
2023-06-18T00:13:06.885Z,3562.00
2023-06-18T00:14:06.921Z,3563.00
2023-06-18T00:15:06.965Z,3561.00
2023-06-18T00:16:07.023Z,3571.00
2023-06-18T00:17:07.024Z,3567.00
2023-06-18T00:18:07.031Z,3559.00
2023-06-18T00:19:07.057Z,3564.00
2023-06-18T00:20:07.081Z,3562.00
2023-06-18T00:21:07.107Z,3561.00
2023-06-18T00:22:07.131Z,3550.00
2023-06-18T00:23:07.159Z,3566.00
2023-06-18T00:24:07.233Z,3550.00
2023-06-18T00:25:07.203Z,3569.00
2023-06-18T00:26:07.220Z,3560.00
2023-06-18T00:27:07.245Z,3566.00
2023-06-18T00:28:07.269Z,3559.00
2023-06-18T00:29:07.286Z,3555.00
2023-06-18T00:30:07.310Z,3564.00
2023-06-18T00:31:07.339Z,3567.00
2023-06-18T00:32:07.355Z,3558.00
2023-06-18T00:33:07.470Z,3561.00
2023-06-18T00:34:07.414Z,3560.00
2023-06-18T00:35:07.446Z,3561.00
2023-06-18T00:36:07.477Z,3561.00
2023-06-18T00:37:07.486Z,3554.00
2023-06-18T00:38:07.532Z,3553.00
2023-06-18T00:39:07.541Z,3561.00
2023-06-18T00:40:07.577Z,3554.00
2023-06-18T00:41:07.610Z,3552.00
2023-06-18T00:42:07.614Z,3546.00
2023-06-18T00:43:07.646Z,3556.00
2023-06-18T00:44:07.669Z,3550.00
2023-06-18T00:45:07.706Z,3552.00
2023-06-18T00:46:07.724Z,3556.00
2023-06-18T00:47:07.836Z,3556.00
2023-06-18T00:48:07.820Z,3557.00
2023-06-18T00:49:07.814Z,3549.00
2023-06-18T00:50:07.859Z,3557.00
2023-06-18T00:51:07.870Z,3557.00
2023-06-18T00:52:07.934Z,3546.00
2023-06-18T00:53:07.923Z,3543.00
2023-06-18T00:54:07.948Z,3554.00
2023-06-18T00:55:08.002Z,3547.00
2023-06-18T00:56:07.998Z,3546.00
2023-06-18T00:57:08.062Z,3540.00
2023-06-18T00:58:08.052Z,3546.00
2023-06-18T00:59:08.099Z,3535.00
2023-06-18T01:00:08.126Z,3534.00
2023-06-18T01:01:08.143Z,3544.00
2023-06-18T01:02:08.256Z,3547.00
2023-06-18T01:03:08.227Z,3532.00
2023-06-18T01:04:08.268Z,3548.00
2023-06-18T01:05:08.266Z,3539.00
2023-06-18T01:06:08.324Z,3552.00
2023-06-18T01:07:08.327Z,3533.00
2023-06-18T01:08:08.355Z,3548.00
2023-06-18T01:09:08.392Z,3533.00
2023-06-18T01:10:08.428Z,3546.00
2023-06-18T01:11:08.443Z,3540.00
2023-06-18T01:12:08.477Z,3535.00
2023-06-18T01:13:08.461Z,3536.00
2023-06-18T01:14:08.490Z,3537.00
2023-06-18T01:15:08.442Z,3543.00
2023-06-18T01:16:08.538Z,3545.00
2023-06-18T01:17:08.697Z,3539.00
2023-06-18T01:18:08.506Z,3551.00
2023-06-18T01:19:08.372Z,3548.00
2023-06-18T01:20:08.378Z,3531.00
2023-06-18T01:21:08.402Z,3547.00
2023-06-18T01:22:08.321Z,3553.00
2023-06-18T01:23:08.335Z,3530.00
2023-06-18T01:24:08.319Z,3533.00
2023-06-18T01:25:08.374Z,3541.00
2023-06-18T01:26:08.384Z,3536.00
2023-06-18T01:27:08.402Z,3543.00
2023-06-18T01:28:08.456Z,3525.00
2023-06-18T01:29:08.459Z,3527.00
2023-06-18T01:30:08.491Z,3540.00
2023-06-18T01:31:08.534Z,3530.00
2023-06-18T01:32:08.551Z,3533.00
2023-06-18T01:33:08.578Z,3529.00
2023-06-18T01:34:08.609Z,3526.00
2023-06-18T01:35:08.658Z,3522.00
2023-06-18T01:36:08.672Z,3533.00
2023-06-18T01:37:08.711Z,3524.00
2023-06-18T01:38:08.741Z,3522.00
2023-06-18T01:39:08.787Z,3508.00
2023-06-18T01:40:08.808Z,3520.00
2023-06-18T01:41:08.853Z,3521.00
2023-06-18T01:42:08.881Z,3523.00
2023-06-18T01:43:08.909Z,3526.00
2023-06-18T01:44:08.936Z,3516.00
2023-06-18T01:45:08.981Z,3531.00
2023-06-18T01:46:09.057Z,3505.00
2023-06-18T01:47:09.065Z,3514.00
2023-06-18T01:48:09.113Z,3509.00
2023-06-18T01:49:09.101Z,3519.00
2023-06-18T01:50:09.153Z,3504.00
2023-06-18T01:51:09.177Z,3510.00
2023-06-18T01:52:09.236Z,3519.00
2023-06-18T01:53:09.232Z,3506.00
2023-06-18T01:54:09.299Z,3503.00
2023-06-18T01:55:09.326Z,3500.00
2023-06-18T01:56:09.341Z,3495.00
2023-06-18T01:57:09.375Z,3493.00
2023-06-18T01:58:09.419Z,3494.00
2023-06-18T01:59:09.458Z,3492.00
2023-06-18T02:00:09.509Z,3502.00
2023-06-18T02:01:09.534Z,3504.00
2023-06-18T02:02:09.562Z,3500.00
2023-06-18T02:03:09.733Z,3501.00
2023-06-18T02:04:09.638Z,3501.00
2023-06-18T02:05:09.680Z,3489.00
2023-06-18T02:06:09.708Z,3489.00
2023-06-18T02:07:09.757Z,3495.00
2023-06-18T02:08:09.789Z,3485.00
2023-06-18T02:09:09.836Z,3477.00
2023-06-18T02:10:09.882Z,3480.00
2023-06-18T02:11:09.888Z,3466.00
2023-06-18T02:12:09.942Z,3476.00
2023-06-18T02:13:09.964Z,3477.00
2023-06-18T02:14:09.991Z,3481.00
2023-06-18T02:15:10.133Z,3475.00
2023-06-18T02:16:10.162Z,3466.00
2023-06-18T02:17:10.100Z,3475.00
2023-06-18T02:18:10.189Z,3470.00
2023-06-18T02:19:10.184Z,3477.00
2023-06-18T02:20:10.243Z,3469.00
2023-06-18T02:21:10.250Z,3465.00
2023-06-18T02:22:10.309Z,3466.00
2023-06-18T02:23:10.435Z,3458.00
2023-06-18T02:24:10.450Z,3450.00
2023-06-18T02:25:10.512Z,3461.00
2023-06-18T02:26:10.429Z,3459.00
2023-06-18T02:27:10.476Z,3447.00
2023-06-18T02:28:10.449Z,3448.00
2023-06-18T02:29:10.460Z,3451.00
2023-06-18T02:30:10.431Z,3455.00
2023-06-18T02:31:10.411Z,3458.00
2023-06-18T02:32:10.435Z,3470.00
2023-06-18T02:33:10.382Z,3459.00
2023-06-18T02:34:10.335Z,3457.00
2023-06-18T02:35:10.303Z,3456.00
2023-06-18T02:36:10.266Z,3448.00
2023-06-18T02:37:10.305Z,3445.00
2023-06-18T02:38:10.427Z,3435.00
2023-06-18T02:39:10.507Z,3459.00
2023-06-18T02:40:10.462Z,3444.00
2023-06-18T02:41:10.448Z,3433.00
2023-06-18T02:42:10.486Z,3431.00
2023-06-18T02:43:10.539Z,3428.00
2023-06-18T02:44:10.574Z,3451.00
2023-06-18T02:45:10.614Z,3432.00
2023-06-18T02:46:10.665Z,3426.00
2023-06-18T02:47:10.690Z,3429.00
2023-06-18T02:48:10.727Z,3414.00
2023-06-18T02:49:10.772Z,3437.00
2023-06-18T02:50:10.817Z,3417.00
2023-06-18T02:51:10.845Z,3431.00
2023-06-18T02:52:10.878Z,3418.00
2023-06-18T02:53:10.920Z,3407.00
2023-06-18T02:54:10.966Z,3434.00
2023-06-18T02:55:11.005Z,3411.00
2023-06-18T02:56:11.029Z,3405.00
2023-06-18T02:57:11.078Z,3408.00
2023-06-18T02:58:11.068Z,3409.00
2023-06-18T02:59:11.042Z,3410.00
2023-06-18T03:00:11.026Z,3415.00
2023-06-18T03:01:11.026Z,3419.00
2023-06-18T03:02:10.988Z,3422.00
2023-06-18T03:03:11.007Z,3424.00
2023-06-18T03:04:10.931Z,3410.00
2023-06-18T03:05:11.005Z,3405.00
2023-06-18T03:06:10.905Z,3407.00
2023-06-18T03:07:10.922Z,3412.00
2023-06-18T03:08:10.979Z,3395.00
2023-06-18T03:09:11.005Z,3401.00
2023-06-18T03:10:11.048Z,3407.00
2023-06-18T03:11:11.090Z,3396.00
2023-06-18T03:12:11.123Z,3395.00
2023-06-18T03:13:11.232Z,3387.00
2023-06-18T03:14:11.202Z,3390.00
2023-06-18T03:15:11.248Z,3392.00
2023-06-18T03:16:11.319Z,3386.00
2023-06-18T03:17:11.318Z,3386.00
2023-06-18T03:18:11.366Z,3369.00
2023-06-18T03:19:11.339Z,3370.00
2023-06-18T03:20:11.323Z,3371.00
2023-06-18T03:21:11.288Z,3370.00
2023-06-18T03:22:11.279Z,3373.00
2023-06-18T03:23:11.253Z,3378.00
2023-06-18T03:24:11.233Z,3377.00
2023-06-18T03:25:11.206Z,3385.00
2023-06-18T03:26:11.194Z,3394.00
2023-06-18T03:27:11.162Z,3389.00
2023-06-18T03:28:11.142Z,3373.00
2023-06-18T03:29:11.139Z,3372.00
2023-06-18T03:30:11.230Z,3373.00
2023-06-18T03:31:11.216Z,3369.00
2023-06-18T03:32:11.266Z,3373.00
2023-06-18T03:33:11.325Z,3376.00
2023-06-18T03:34:11.343Z,3370.00
2023-06-18T03:35:11.410Z,3352.00
2023-06-18T03:36:11.430Z,3354.00
2023-06-18T03:37:11.474Z,3357.00
2023-06-18T03:38:11.531Z,3366.00
2023-06-18T03:39:11.553Z,3353.00
2023-06-18T03:40:13.823Z,3353.00
2023-06-18T03:41:11.763Z,3356.00
2023-06-18T03:42:11.799Z,3357.00
2023-06-18T03:43:11.845Z,3366.00
2023-06-18T03:44:11.896Z,3357.00
2023-06-18T03:45:11.936Z,3353.00
2023-06-18T03:46:12.015Z,3337.00
2023-06-18T03:47:12.016Z,3344.00
2023-06-18T03:48:12.161Z,3342.00
2023-06-18T03:49:12.102Z,3362.00
2023-06-18T03:50:12.156Z,3337.00
2023-06-18T03:51:12.202Z,3354.00
2023-06-18T03:52:12.227Z,3344.00
2023-06-18T03:53:12.278Z,3337.00
2023-06-18T03:54:12.334Z,3319.00
2023-06-18T03:55:12.364Z,3322.00
2023-06-18T03:56:12.410Z,3315.00
2023-06-18T03:57:12.444Z,3319.00
2023-06-18T03:58:12.498Z,3328.00
2023-06-18T03:59:12.572Z,3321.00
2023-06-18T04:00:12.600Z,3320.00
2023-06-18T04:01:12.650Z,3308.00
2023-06-18T04:02:14.637Z,3314.00
2023-06-18T04:03:12.711Z,3313.00
2023-06-18T04:04:12.657Z,3310.00
2023-06-18T04:05:12.617Z,3294.00
2023-06-18T04:06:12.597Z,3293.00
2023-06-18T04:07:12.573Z,3289.00
2023-06-18T04:08:12.590Z,3290.00
2023-06-18T04:09:12.540Z,3298.00
2023-06-18T04:10:12.533Z,3308.00
2023-06-18T04:11:12.514Z,3308.00
2023-06-18T04:12:12.482Z,3297.00
2023-06-18T04:13:12.458Z,3309.00
2023-06-18T04:14:12.438Z,3297.00
2023-06-18T04:15:12.428Z,3304.00
2023-06-18T04:16:12.405Z,3288.00
2023-06-18T04:17:12.379Z,3282.00
2023-06-18T04:18:12.440Z,3296.00
2023-06-18T04:19:12.398Z,3298.00
2023-06-18T04:20:12.480Z,3280.00
2023-06-18T04:21:12.506Z,3278.00
2023-06-18T04:22:12.549Z,3269.00
2023-06-18T04:23:12.593Z,3273.00
2023-06-18T04:24:12.637Z,3258.00
2023-06-18T04:25:12.703Z,3265.00
2023-06-18T04:26:12.742Z,3266.00
2023-06-18T04:27:12.785Z,3263.00
2023-06-18T04:28:12.835Z,3277.00
2023-06-18T04:29:12.878Z,3265.00
2023-06-18T04:30:12.913Z,3256.00
2023-06-18T04:31:12.974Z,3265.00
2023-06-18T04:32:13.017Z,3264.00
2023-06-18T04:33:12.989Z,3264.00
2023-06-18T04:34:12.970Z,3266.00
2023-06-18T04:35:12.955Z,3262.00
2023-06-18T04:36:12.937Z,3255.00
2023-06-18T04:37:12.925Z,3260.00
2023-06-18T04:38:12.911Z,3265.00
2023-06-18T04:39:12.891Z,3265.00
2023-06-18T04:40:12.953Z,3256.00
2023-06-18T04:41:12.846Z,3254.00
2023-06-18T04:42:12.830Z,3256.00
2023-06-18T04:43:12.823Z,3260.00
2023-06-18T04:44:12.799Z,3245.00
2023-06-18T04:45:12.797Z,3247.00
2023-06-18T04:46:12.793Z,3252.00
2023-06-18T04:47:12.890Z,3228.00
2023-06-18T04:48:12.887Z,3242.00
2023-06-18T04:49:12.915Z,3247.00
2023-06-18T04:50:12.964Z,3236.00
2023-06-18T04:51:13.010Z,3236.00
2023-06-18T04:52:13.080Z,3235.00
2023-06-18T04:53:13.099Z,3231.00
2023-06-18T04:54:13.150Z,3208.00
2023-06-18T04:55:13.204Z,3226.00
2023-06-18T04:56:13.232Z,3225.00
2023-06-18T04:57:13.293Z,3232.00
2023-06-18T04:58:13.331Z,3225.00
2023-06-18T04:59:13.373Z,3227.00
2023-06-18T05:00:13.444Z,3208.00
2023-06-18T05:01:13.473Z,3209.00
2023-06-18T05:02:13.467Z,3210.00
2023-06-18T05:03:13.512Z,3212.00
2023-06-18T05:04:13.658Z,3214.00
2023-06-18T05:05:13.481Z,3212.00
2023-06-18T05:06:13.416Z,3213.00
2023-06-18T05:07:13.385Z,3221.00
2023-06-18T05:08:13.375Z,3204.00
2023-06-18T05:09:13.364Z,3217.00
2023-06-18T05:10:13.381Z,3200.00
2023-06-18T05:11:13.416Z,3202.00
2023-06-18T05:12:13.459Z,3211.00
2023-06-18T05:13:13.508Z,3195.00
2023-06-18T05:14:13.561Z,3199.00
2023-06-18T05:15:13.537Z,3200.00
2023-06-18T05:16:13.556Z,3202.00
2023-06-18T05:17:13.514Z,3205.00
2023-06-18T05:18:13.515Z,3200.00
2023-06-18T05:19:13.466Z,3206.00
2023-06-18T05:20:13.456Z,3209.00
2023-06-18T05:21:13.424Z,3207.00
2023-06-18T05:22:13.418Z,3210.00
2023-06-18T05:23:13.456Z,3212.00
2023-06-18T05:24:13.495Z,3194.00
2023-06-18T05:25:13.515Z,3205.00
2023-06-18T05:26:13.546Z,3196.00
2023-06-18T05:27:13.581Z,3189.00
2023-06-18T05:28:13.638Z,3196.00
2023-06-18T05:29:13.699Z,3186.00
2023-06-18T05:30:13.708Z,3180.00
2023-06-18T05:31:13.761Z,3165.00
2023-06-18T05:32:14.714Z,3189.00
2023-06-18T05:33:13.796Z,3181.00
2023-06-18T05:34:13.843Z,3172.00
2023-06-18T05:35:13.884Z,3166.00
2023-06-18T05:36:13.926Z,3164.00
2023-06-18T05:37:13.957Z,3164.00
2023-06-18T05:38:14.008Z,3162.00
2023-06-18T05:39:14.051Z,3159.00
2023-06-18T05:40:14.118Z,3168.00
2023-06-18T05:41:14.140Z,3158.00
2023-06-18T05:42:14.187Z,3147.00
2023-06-18T05:43:14.227Z,3153.00
2023-06-18T05:44:14.264Z,3151.00
2023-06-18T05:45:14.310Z,3145.00
2023-06-18T05:46:15.501Z,3145.00
2023-06-18T05:47:14.390Z,3140.00
2023-06-18T05:48:14.432Z,3132.00
2023-06-18T05:49:14.468Z,3134.00
2023-06-18T05:50:14.512Z,3152.00
2023-06-18T05:51:14.562Z,3138.00
2023-06-18T05:52:14.613Z,3124.00
2023-06-18T05:53:14.667Z,3136.00
2023-06-18T05:54:14.692Z,3136.00
2023-06-18T05:55:14.741Z,3115.00
2023-06-18T05:56:14.778Z,3130.00
2023-06-18T05:57:14.830Z,3113.00
2023-06-18T05:58:14.860Z,3130.00
2023-06-18T05:59:14.911Z,3105.00
2023-06-18T06:00:14.935Z,3111.00
2023-06-18T06:01:15.066Z,3115.00
2023-06-18T06:02:15.001Z,3101.00
2023-06-18T06:03:15.042Z,3095.00
2023-06-18T06:04:15.121Z,3112.00
2023-06-18T06:05:15.145Z,3101.00
2023-06-18T06:06:15.174Z,3089.00
2023-06-18T06:07:15.221Z,3087.00
2023-06-18T06:08:15.254Z,3102.00
2023-06-18T06:09:15.293Z,3076.00
2023-06-18T06:10:15.364Z,3083.00
2023-06-18T06:11:15.404Z,3082.00
2023-06-18T06:12:15.421Z,3080.00
2023-06-18T06:13:15.456Z,3078.00
2023-06-18T06:14:15.490Z,3073.00
2023-06-18T06:15:15.529Z,3080.00
2023-06-18T06:16:15.607Z,3066.00
2023-06-18T06:17:15.608Z,3061.00
2023-06-18T06:18:16.963Z,3078.00
2023-06-18T06:19:15.694Z,3060.00
2023-06-18T06:20:15.744Z,3060.00
2023-06-18T06:21:15.770Z,3058.00
2023-06-18T06:22:15.807Z,3046.00
2023-06-18T06:23:15.831Z,3072.00
2023-06-18T06:24:15.929Z,3054.00
2023-06-18T06:25:15.906Z,3049.00
2023-06-18T06:26:15.931Z,3054.00
2023-06-18T06:27:15.973Z,3047.00
2023-06-18T06:28:15.999Z,3047.00
2023-06-18T06:29:16.038Z,3035.00
2023-06-18T06:30:16.079Z,3024.00
2023-06-18T06:31:16.108Z,3020.00
2023-06-18T06:32:16.146Z,3022.00
2023-06-18T06:33:16.190Z,3006.00
2023-06-18T06:34:16.243Z,3004.00
2023-06-18T06:35:16.253Z,3005.00
2023-06-18T06:36:16.286Z,3025.00
2023-06-18T06:37:16.308Z,3006.00
2023-06-18T06:38:16.333Z,3002.00
2023-06-18T06:39:16.374Z,2992.00
2023-06-18T06:40:16.390Z,2992.00
2023-06-18T06:41:16.433Z,3006.00
2023-06-18T06:42:16.441Z,2991.00
2023-06-18T06:43:16.469Z,2984.00
2023-06-18T06:44:16.519Z,2982.00
2023-06-18T06:45:16.549Z,2976.00
2023-06-18T06:46:16.591Z,2967.00
2023-06-18T06:47:16.579Z,2952.00
2023-06-18T06:48:16.673Z,2926.00
2023-06-18T06:49:16.614Z,2928.00
2023-06-18T06:50:16.646Z,2911.00
2023-06-18T06:51:16.664Z,2918.00
2023-06-18T06:52:16.687Z,2904.00
2023-06-18T06:53:16.708Z,2859.00
2023-06-18T06:54:16.721Z,2864.00
2023-06-18T06:55:16.746Z,2867.00
2023-06-18T06:56:16.766Z,2819.00
2023-06-18T06:57:16.780Z,2792.00
2023-06-18T06:58:16.820Z,2769.00
2023-06-18T06:59:16.824Z,2731.00
2023-06-18T07:00:16.864Z,2715.00
2023-06-18T07:01:16.924Z,2690.00
2023-06-18T07:02:16.975Z,2618.00
2023-06-18T07:03:16.993Z,2600.00
2023-06-18T07:04:16.969Z,2548.00
2023-06-18T07:05:16.995Z,2519.00
2023-06-18T07:06:17.017Z,2484.00
2023-06-18T07:07:17.075Z,2420.00
2023-06-18T07:08:17.073Z,2376.00
2023-06-18T07:09:17.095Z,2352.00
2023-06-18T07:10:17.136Z,2298.00
2023-06-18T07:11:17.159Z,2254.00
2023-06-18T07:12:17.178Z,2155.00
2023-06-18T07:13:17.201Z,2125.00
2023-06-18T07:14:17.250Z,2099.00
2023-06-18T07:15:17.329Z,2035.00
2023-06-18T07:16:17.424Z,2022.00
2023-06-18T07:17:17.258Z,1966.00
2023-06-18T07:18:17.268Z,1922.00
2023-06-18T07:19:17.222Z,1866.00
2023-06-18T07:20:17.219Z,1840.00
2023-06-18T07:21:17.191Z,1758.00
2023-06-18T07:22:17.181Z,1737.00
2023-06-18T07:23:17.157Z,1719.00
2023-06-18T07:24:17.215Z,1613.00
2023-06-18T07:25:17.127Z,1532.00
2023-06-18T07:26:17.115Z,1453.00
2023-06-18T07:27:17.083Z,1390.00
2023-06-18T07:28:17.071Z,1332.00
2023-06-18T07:29:17.048Z,1294.00
2023-06-18T07:30:17.042Z,1278.00
2023-06-18T07:31:17.208Z,1216.00
2023-06-18T07:32:17.074Z,1170.00
2023-06-18T07:33:17.119Z,1138.00
2023-06-18T07:34:17.114Z,1104.00
2023-06-18T07:35:17.151Z,1066.00
2023-06-18T07:36:17.169Z,1034.00
2023-06-18T07:37:17.171Z,1048.00
2023-06-18T07:38:17.194Z,985.00
2023-06-18T07:39:17.208Z,942.00
2023-06-18T07:40:17.225Z,916.00
2023-06-18T07:41:17.244Z,877.00
2023-06-18T07:42:17.280Z,857.00
2023-06-18T07:43:17.285Z,801.00
2023-06-18T07:44:17.299Z,792.00
2023-06-18T07:45:17.339Z,752.00
2023-06-18T07:46:17.339Z,774.00
2023-06-18T07:47:17.309Z,728.00
2023-06-18T07:48:17.304Z,695.00
2023-06-18T07:49:17.277Z,671.00
2023-06-18T07:50:17.283Z,647.00
2023-06-18T07:51:17.240Z,638.00
2023-06-18T07:52:17.228Z,636.00
2023-06-18T07:53:17.213Z,627.00
2023-06-18T07:54:17.208Z,611.00
2023-06-18T07:55:17.217Z,616.00
2023-06-18T07:56:17.264Z,622.00
2023-06-18T07:57:17.180Z,587.00
2023-06-18T07:58:17.155Z,543.00
2023-06-18T07:59:17.147Z,548.00
2023-06-18T08:00:17.122Z,549.00
2023-06-18T08:01:17.110Z,529.00
2023-06-18T08:02:17.088Z,513.00
2023-06-18T08:03:17.123Z,515.00
2023-06-18T08:04:17.124Z,508.00
2023-06-18T08:05:17.062Z,501.00
2023-06-18T08:06:17.068Z,502.00
2023-06-18T08:07:17.084Z,500.00
2023-06-18T08:08:17.095Z,498.00
2023-06-18T08:09:17.096Z,501.00
2023-06-18T08:10:17.126Z,501.00
2023-06-18T08:11:17.112Z,503.00
2023-06-18T08:12:17.135Z,501.00
2023-06-18T08:13:17.151Z,516.00
2023-06-18T08:14:17.165Z,512.00
2023-06-18T08:15:17.177Z,507.00
2023-06-18T08:16:17.202Z,504.00
2023-06-18T08:17:17.176Z,503.00
2023-06-18T08:18:17.198Z,499.00
2023-06-18T08:19:17.147Z,499.00
2023-06-18T08:20:17.125Z,501.00
2023-06-18T08:21:17.104Z,499.00
2023-06-18T08:22:17.116Z,488.00
2023-06-18T08:23:17.059Z,487.00
2023-06-18T08:24:17.075Z,511.00
2023-06-18T08:25:17.023Z,534.00
2023-06-18T08:26:16.996Z,537.00
2023-06-18T08:27:16.987Z,505.00
2023-06-18T08:28:16.962Z,526.00
2023-06-18T08:29:16.940Z,503.00
2023-06-18T08:30:16.925Z,510.00
2023-06-18T08:31:16.913Z,521.00
2023-06-18T08:32:16.891Z,520.00
2023-06-18T08:33:16.908Z,506.00
2023-06-18T08:34:16.877Z,498.00
2023-06-18T08:35:16.863Z,508.00
2023-06-18T08:36:16.823Z,526.00
2023-06-18T08:37:16.807Z,509.00
2023-06-18T08:38:16.810Z,528.00
2023-06-18T08:39:16.780Z,511.00
2023-06-18T08:40:16.757Z,537.00
2023-06-18T08:41:16.758Z,556.00
2023-06-18T08:42:16.710Z,527.00
2023-06-18T08:43:16.675Z,506.00
2023-06-18T08:44:16.651Z,500.00
2023-06-18T08:45:16.649Z,536.00
2023-06-18T08:46:16.693Z,537.00
2023-06-18T08:47:16.630Z,530.00
2023-06-18T08:48:28.426Z,507.00
2023-06-18T08:49:16.588Z,504.00
2023-06-18T08:50:16.560Z,488.00
2023-06-18T08:51:16.556Z,491.00
2023-06-18T08:52:16.526Z,498.00
2023-06-18T08:53:16.487Z,483.00
2023-06-18T08:54:16.485Z,504.00
2023-06-18T08:55:16.462Z,502.00
2023-06-18T08:56:16.426Z,529.00
2023-06-18T08:57:16.392Z,546.00
2023-06-18T08:58:16.360Z,528.00
2023-06-18T08:59:16.332Z,540.00
2023-06-18T09:00:16.327Z,528.00
2023-06-18T09:01:16.296Z,527.00
2023-06-18T09:02:16.292Z,528.00
2023-06-18T09:03:16.346Z,543.00
2023-06-18T09:04:16.231Z,530.00
2023-06-18T09:05:16.203Z,540.00
2023-06-18T09:06:16.178Z,545.00
2023-06-18T09:07:16.133Z,545.00
2023-06-18T09:08:16.099Z,547.00
2023-06-18T09:09:16.078Z,550.00
2023-06-18T09:10:16.074Z,569.00
2023-06-18T09:11:16.039Z,564.00
2023-06-18T09:12:16.000Z,559.00
2023-06-18T09:13:15.987Z,555.00
2023-06-18T09:14:15.942Z,548.00
2023-06-18T09:15:15.942Z,537.00
2023-06-18T09:16:15.979Z,555.00
2023-06-18T09:17:15.922Z,559.00
2023-06-18T09:18:15.860Z,557.00
2023-06-18T09:19:15.850Z,534.00
2023-06-18T09:20:15.810Z,508.00
2023-06-18T09:21:15.794Z,532.00
2023-06-18T09:22:15.791Z,564.00
2023-06-18T09:23:15.745Z,583.00
2023-06-18T09:24:15.816Z,596.00
2023-06-18T09:25:15.700Z,596.00
2023-06-18T09:26:15.688Z,597.00
2023-06-18T09:27:15.658Z,595.00
2023-06-18T09:28:15.626Z,594.00
2023-06-18T09:29:15.594Z,594.00
2023-06-18T09:30:15.587Z,595.00
2023-06-18T09:31:15.556Z,582.00
2023-06-18T09:32:15.684Z,583.00
2023-06-18T09:33:15.516Z,575.00
2023-06-18T09:34:15.509Z,589.00
2023-06-18T09:35:15.496Z,599.00
2023-06-18T09:36:15.461Z,599.00
2023-06-18T09:37:15.437Z,600.00
2023-06-18T09:38:15.443Z,584.00
2023-06-18T09:39:15.398Z,575.00
2023-06-18T09:40:15.396Z,596.00
2023-06-18T09:41:15.395Z,598.00
2023-06-18T09:42:15.401Z,578.00
2023-06-18T09:43:15.307Z,559.00
2023-06-18T09:44:15.288Z,532.00
2023-06-18T09:45:15.265Z,505.00
2023-06-18T09:46:15.267Z,504.00
2023-06-18T09:47:15.209Z,521.00
2023-06-18T09:48:15.215Z,538.00
2023-06-18T09:49:15.170Z,525.00
2023-06-18T09:50:15.165Z,496.00
2023-06-18T09:51:15.119Z,541.00
2023-06-18T09:52:15.088Z,570.00
2023-06-18T09:53:15.074Z,583.00
2023-06-18T09:54:15.042Z,566.00
2023-06-18T09:55:15.028Z,557.00
2023-06-18T09:56:15.015Z,578.00
2023-06-18T09:57:15.060Z,575.00
2023-06-18T09:58:14.962Z,550.00
2023-06-18T09:59:14.946Z,540.00
2023-06-18T10:00:14.943Z,549.00
2023-06-18T10:01:14.913Z,554.00
2023-06-18T10:02:15.478Z,547.00
2023-06-18T10:03:14.892Z,565.00
2023-06-18T10:04:14.862Z,555.00
2023-06-18T10:05:14.831Z,560.00
2023-06-18T10:06:14.792Z,565.00
2023-06-18T10:07:14.772Z,551.00
2023-06-18T10:08:14.748Z,565.00
2023-06-18T10:09:14.826Z,557.00
2023-06-18T10:10:14.701Z,552.00
2023-06-18T10:11:14.672Z,530.00
2023-06-18T10:12:14.661Z,515.00
2023-06-18T10:13:14.638Z,500.00
2023-06-18T10:14:14.609Z,517.00
2023-06-18T10:15:14.599Z,525.00
2023-06-18T10:16:14.601Z,526.00
2023-06-18T10:17:14.529Z,559.00
2023-06-18T10:18:14.583Z,561.00
2023-06-18T10:19:14.478Z,573.00
2023-06-18T10:20:14.467Z,577.00
2023-06-18T10:21:14.440Z,599.00
2023-06-18T10:22:14.410Z,586.00
2023-06-18T10:23:14.385Z,554.00
2023-06-18T10:24:14.383Z,570.00
2023-06-18T10:25:14.377Z,564.00
2023-06-18T10:26:14.307Z,552.00
2023-06-18T10:27:14.336Z,588.00
2023-06-18T10:28:14.285Z,569.00
2023-06-18T10:29:14.271Z,558.00
2023-06-18T10:30:14.221Z,582.00
2023-06-18T10:31:14.195Z,589.00
2023-06-18T10:32:14.162Z,585.00
2023-06-18T10:33:14.128Z,601.00
2023-06-18T10:34:14.127Z,612.00
2023-06-18T10:35:14.185Z,606.00
2023-06-18T10:36:14.050Z,611.00
2023-06-18T10:37:14.029Z,616.00
2023-06-18T10:38:14.025Z,611.00
2023-06-18T10:39:24.515Z,608.00
2023-06-18T10:40:14.963Z,608.00
2023-06-18T10:41:13.925Z,610.00
2023-06-18T10:42:13.903Z,609.00
2023-06-18T10:43:13.870Z,612.00
2023-06-18T10:44:13.856Z,606.00
2023-06-18T10:45:13.962Z,595.00
2023-06-18T10:46:13.887Z,610.00
2023-06-18T10:47:13.764Z,609.00
2023-06-18T10:48:13.742Z,610.00
2023-06-18T10:49:13.711Z,599.00
2023-06-18T10:50:13.742Z,574.00
2023-06-18T10:51:13.677Z,570.00
2023-06-18T10:52:13.672Z,587.00
2023-06-18T10:53:13.615Z,577.00
2023-06-18T10:54:13.607Z,578.00
2023-06-18T10:55:13.636Z,554.00
2023-06-18T10:56:13.545Z,556.00
2023-06-18T10:57:13.502Z,533.00
2023-06-18T10:58:13.470Z,520.00
2023-06-18T10:59:13.470Z,501.00
2023-06-18T11:00:13.418Z,508.00
2023-06-18T11:01:13.419Z,500.00
2023-06-18T11:02:13.468Z,504.00
2023-06-18T11:03:13.632Z,500.00
2023-06-18T11:04:13.424Z,501.00
2023-06-18T11:05:13.508Z,504.00
2023-06-18T11:06:13.481Z,513.00
2023-06-18T11:07:13.536Z,549.00
2023-06-18T11:08:13.568Z,577.00
2023-06-18T11:09:13.615Z,593.00
2023-06-18T11:10:13.652Z,585.00
2023-06-18T11:11:13.680Z,569.00
2023-06-18T11:12:13.701Z,586.00
2023-06-18T11:13:13.752Z,582.00
2023-06-18T11:14:13.757Z,590.00
2023-06-18T11:15:13.756Z,592.00
2023-06-18T11:16:13.786Z,597.00
2023-06-18T11:17:13.776Z,614.00
2023-06-18T11:18:13.784Z,612.00
2023-06-18T11:19:13.841Z,595.00
2023-06-18T11:20:13.852Z,593.00
2023-06-18T11:21:13.899Z,581.00
2023-06-18T11:22:13.912Z,567.00
2023-06-18T11:23:13.958Z,565.00
2023-06-18T11:24:14.043Z,564.00
2023-06-18T11:25:14.042Z,548.00
2023-06-18T11:26:14.087Z,546.00
2023-06-18T11:27:14.138Z,551.00
2023-06-18T11:28:14.124Z,536.00
2023-06-18T11:29:14.151Z,529.00
2023-06-18T11:30:14.187Z,517.00
2023-06-18T11:31:14.268Z,514.00
2023-06-18T11:32:14.221Z,524.00
2023-06-18T11:33:14.239Z,530.00
2023-06-18T11:34:14.181Z,537.00
2023-06-18T11:35:14.220Z,538.00
2023-06-18T11:36:16.207Z,545.00
2023-06-18T11:37:14.224Z,549.00
2023-06-18T11:38:14.192Z,556.00
2023-06-18T11:39:14.149Z,547.00
2023-06-18T11:40:14.116Z,553.00
2023-06-18T11:41:14.107Z,539.00
2023-06-18T11:42:16.444Z,555.00
2023-06-18T11:43:14.051Z,555.00
2023-06-18T11:44:14.018Z,553.00
2023-06-18T11:45:14.009Z,557.00
2023-06-18T11:46:14.011Z,558.00
2023-06-18T11:47:13.956Z,564.00
2023-06-18T11:48:13.928Z,563.00
2023-06-18T11:49:13.916Z,557.00
2023-06-18T11:50:13.884Z,549.00
2023-06-18T11:51:13.864Z,532.00
2023-06-18T11:52:13.827Z,533.00
2023-06-18T11:53:13.843Z,539.00
2023-06-18T11:54:13.777Z,542.00
2023-06-18T11:55:13.775Z,548.00
2023-06-18T11:56:13.729Z,532.00
2023-06-18T11:57:13.704Z,535.00
2023-06-18T11:58:13.687Z,539.00
2023-06-18T11:59:13.662Z,538.00
2023-06-18T12:00:13.638Z,529.00
2023-06-18T12:01:13.635Z,509.00
2023-06-18T12:02:13.680Z,501.00
2023-06-18T12:03:13.673Z,500.00
2023-06-18T12:04:13.662Z,504.00
2023-06-18T12:05:13.562Z,508.00
2023-06-18T12:06:13.529Z,520.00
2023-06-18T12:07:13.491Z,521.00
2023-06-18T12:08:13.465Z,519.00
2023-06-18T12:09:13.441Z,526.00
2023-06-18T12:10:13.424Z,524.00
2023-06-18T12:11:13.388Z,521.00
2023-06-18T12:12:13.362Z,509.00
2023-06-18T12:13:13.333Z,518.00
2023-06-18T12:14:13.300Z,514.00